Time;durP1;ratioP1;P1;durP2;ratioP2;P2;SDS_P1;SDS_P2;PMS_P1;PMS_P2;Temp;Humidity;BMP_temperature;BMP_pressure;BME280_temperature;BME280_humidity;BME280_pressure;Samples;Min_cycle;Max_cycle;Signal;HPM_P1;HPM_P2
2023/01/19 00:01:14;;;;;;;;;;;1.10;99.90;;;;;;5070506;28;19916;-76
2023/01/19 00:03:40;;;;;;;;;;;1.10;99.90;;;;;;5071140;28;20487;-75
2023/01/19 00:06:06;;;;;;;;;;;1.00;99.90;;;;;;5071307;28;19915;-75
2023/01/19 00:08:32;;;;;;;;;;;1.00;99.90;;;;;;5071281;28;20379;-75
2023/01/19 00:10:57;;;;;;;;;;;1.00;99.90;;;;;;5071667;28;19913;-76
2023/01/19 00:13:23;;;;;;;;;;;1.00;99.90;;;;;;5070900;28;19958;-76
2023/01/19 00:15:48;;;;;;;;;;;1.00;99.90;;;;;;5071594;28;19912;-76
2023/01/19 00:18:14;;;;;;;;;;;1.10;99.90;;;;;;5071407;28;19943;-76
2023/01/19 00:20:40;;;;;;;;;;;1.10;99.90;;;;;;5071301;28;19909;-76
2023/01/19 00:23:06;;;;;;;;;;;1.10;99.90;;;;;;5072071;28;19919;-75
2023/01/19 00:25:32;;;;;;;;;;;1.10;99.90;;;;;;5070952;28;19923;-75
2023/01/19 00:27:58;;;;;;;;;;;1.10;99.90;;;;;;5071360;28;19912;-75
2023/01/19 00:30:23;;;;;;;;;;;1.10;99.90;;;;;;5070993;28;19912;-76
2023/01/19 00:32:49;;;;;;;;;;;1.10;99.90;;;;;;5070972;28;20242;-75
2023/01/19 00:35:14;;;;;;;;;;;1.10;99.90;;;;;;5071210;28;19908;-76
2023/01/19 00:37:44;;;;;;;;;;;1.10;99.90;;;;;;5070454;28;19952;-76
2023/01/19 00:40:11;;;;;;;;;;;1.10;99.90;;;;;;5071836;28;19917;-76
2023/01/19 00:42:39;;;;;;;;;;;1.10;99.90;;;;;;5071254;28;19924;-76
2023/01/19 00:45:09;;;;;;;;;;;1.10;99.90;;;;;;5071608;28;20382;-76
2023/01/19 00:47:34;;;;;;;;;;;1.00;99.90;;;;;;5070605;28;20330;-76
2023/01/19 00:50:00;;;;;;;;;;;1.00;99.90;;;;;;5071728;28;19955;-77
2023/01/19 00:52:25;;;;;;;;;;;1.00;99.90;;;;;;5071302;28;19920;-77
2023/01/19 00:54:51;;;;;;;;;;;1.00;99.90;;;;;;5071441;28;19921;-76
2023/01/19 00:57:18;;;;;;;;;;;0.90;99.90;;;;;;5071636;28;19908;-76
2023/01/19 00:59:44;;;;;;;;;;;0.90;99.90;;;;;;5070785;28;20085;-76
2023/01/19 01:02:10;;;;;;;;;;;0.90;99.90;;;;;;5071205;28;19944;-76
2023/01/19 01:04:36;;;;;;;;;;;0.90;99.90;;;;;;5070676;28;20337;-76
2023/01/19 01:07:02;;;;;;;;;;;0.90;99.90;;;;;;5071205;28;19995;-76
2023/01/19 01:09:27;;;;;;;;;;;0.90;99.90;;;;;;5070556;28;19919;-76
2023/01/19 01:11:53;;;;;;;;;;;0.90;99.90;;;;;;5071547;28;20281;-76
2023/01/19 01:14:19;;;;;;;;;;;0.80;99.90;;;;;;5071235;28;19912;-76
2023/01/19 01:16:44;;;;;;;;;;;0.80;99.90;;;;;;5069834;28;19951;-76
2023/01/19 01:19:10;;;;;;;;;;;0.80;99.90;;;;;;5071018;28;19991;-76
2023/01/19 01:21:36;;;;;;;;;;;0.80;99.90;;;;;;5070897;28;20256;-76
2023/01/19 01:24:02;;;;;;;;;;;0.80;99.90;;;;;;5070987;28;19908;-76
2023/01/19 01:26:28;;;;;;;;;;;0.80;99.90;;;;;;5070426;28;19942;-77
2023/01/19 01:28:53;;;;;;;;;;;0.80;99.90;;;;;;5070686;28;20273;-76
2023/01/19 01:31:19;;;;;;;;;;;0.80;99.90;;;;;;5071159;28;20006;-76
2023/01/19 01:33:44;;;;;;;;;;;0.90;99.90;;;;;;5069065;28;19904;-77
2023/01/19 01:36:10;;;;;;;;;;;0.90;99.90;;;;;;5071097;28;19908;-76
2023/01/19 01:38:36;;;;;;;;;;;0.90;99.90;;;;;;5070740;28;19908;-76
2023/01/19 01:41:02;;;;;;;;;;;0.90;99.90;;;;;;5071212;28;19908;-76
2023/01/19 01:43:41;;;;;;;;;;;0.90;99.90;;;;;;5069441;28;19909;-77
2023/01/19 01:46:07;;;;;;;;;;;0.90;99.90;;;;;;5070848;28;20372;-76
2023/01/19 01:48:33;;;;;;;;;;;0.90;99.90;;;;;;5070205;28;20003;-76
2023/01/19 01:53:47;;;;;;;;;;;0.90;99.90;;;;;;5069945;28;19919;-76
2023/01/19 01:56:14;;;;;;;;;;;1.00;99.90;;;;;;5071492;28;19970;-76
2023/01/19 01:58:39;;;;;;;;;;;1.00;99.90;;;;;;5070139;28;19989;-76
2023/01/19 02:03:50;;;;;;;;;;;1.00;99.90;;;;;;5070229;28;19965;-76
2023/01/19 02:06:16;;;;;;;;;;;1.00;99.90;;;;;;5070504;28;19912;-76
2023/01/19 02:14:13;;;;;;;;;;;1.10;99.90;;;;;;5070937;28;20003;-76
2023/01/19 02:16:39;;;;;;;;;;;1.10;99.90;;;;;;5070528;28;20008;-77
2023/01/19 02:19:06;;;;;;;;;;;1.10;99.90;;;;;;5070530;28;19909;-77
2023/01/19 02:21:34;;;;;;;;;;;1.10;99.90;;;;;;5070150;28;19923;-76
2023/01/19 02:24:01;;;;;;;;;;;1.10;99.90;;;;;;5070407;28;19916;-76
2023/01/19 02:26:29;;;;;;;;;;;1.10;99.90;;;;;;5070347;28;20372;-78
2023/01/19 02:28:57;;;;;;;;;;;1.10;99.90;;;;;;5073944;28;20057;-76
2023/01/19 02:31:23;;;;;;;;;;;1.10;99.90;;;;;;5074356;28;19919;-76
2023/01/19 02:33:49;;;;;;;;;;;1.10;99.90;;;;;;5073708;28;20148;-76
2023/01/19 02:36:16;;;;;;;;;;;1.10;99.90;;;;;;5074498;28;19908;-76
2023/01/19 02:38:44;;;;;;;;;;;1.10;99.90;;;;;;5073489;28;19909;-76
2023/01/19 02:41:11;;;;;;;;;;;1.10;99.90;;;;;;5074102;28;20007;-76
2023/01/19 02:43:37;;;;;;;;;;;1.10;99.90;;;;;;5073463;28;19908;-76
2023/01/19 02:46:02;;;;;;;;;;;1.10;99.90;;;;;;5073952;28;20003;-76
2023/01/19 02:48:28;;;;;;;;;;;1.10;99.90;;;;;;5073592;28;20003;-76
2023/01/19 02:51:02;;;;;;;;;;;1.10;99.90;;;;;;5073078;28;20441;-76
2023/01/19 02:53:31;;;;;;;;;;;1.10;99.90;;;;;;5073914;28;19912;-77
2023/01/19 02:56:08;;;;;;;;;;;1.10;99.90;;;;;;5073306;28;19920;-76
2023/01/19 02:58:37;;;;;;;;;;;1.10;99.90;;;;;;5073679;28;19962;-78
2023/01/19 03:01:04;;;;;;;;;;;1.10;99.90;;;;;;5073831;28;19908;-77
2023/01/19 03:03:30;;;;;;;;;;;1.10;99.90;;;;;;5073632;28;20007;-78
2023/01/19 03:06:00;;;;;;;;;;;1.10;99.90;;;;;;5073319;28;19908;-76
2023/01/19 03:08:29;;;;;;;;;;;1.10;99.90;;;;;;5073561;28;19955;-76
2023/01/19 03:11:02;;;;;;;;;;;1.10;99.90;;;;;;5072821;28;19924;-77
2023/01/19 03:13:40;;;;;;;;;;;1.10;99.90;;;;;;5073836;28;19909;-76
2023/01/19 03:16:15;;;;;;;;;;;1.10;99.90;;;;;;5073490;28;19913;-76
2023/01/19 03:18:42;;;;;;;;;;;1.10;99.90;;;;;;5072805;28;19908;-77
2023/01/19 03:21:08;;;;;;;;;;;1.10;99.90;;;;;;5072952;28;19909;-76
2023/01/19 03:23:35;;;;;;;;;;;1.00;99.90;;;;;;5072814;28;20408;-78
2023/01/19 03:26:01;;;;;;;;;;;1.00;99.90;;;;;;5073064;28;19908;-76
2023/01/19 03:28:28;;;;;;;;;;;1.00;99.90;;;;;;5073042;28;20011;-77
2023/01/19 03:30:59;;;;;;;;;;;1.00;99.90;;;;;;5072182;28;20023;-77
2023/01/19 03:33:30;;;;;;;;;;;1.00;99.90;;;;;;5072997;28;19955;-77
2023/01/19 03:36:02;;;;;;;;;;;1.00;99.90;;;;;;5072346;28;19948;-76
2023/01/19 03:38:30;;;;;;;;;;;1.00;99.90;;;;;;5072682;28;19991;-75
2023/01/19 03:40:58;;;;;;;;;;;1.00;99.90;;;;;;5071214;28;19920;-75
2023/01/19 03:43:24;;;;;;;;;;;0.90;99.90;;;;;;5072460;28;20053;-76
2023/01/19 03:45:51;;;;;;;;;;;0.90;99.90;;;;;;5072054;28;20350;-76
2023/01/19 03:48:18;;;;;;;;;;;0.90;99.90;;;;;;5071255;28;20011;-76
2023/01/19 03:50:44;;;;;;;;;;;0.90;99.90;;;;;;5072032;28;19917;-76
2023/01/19 03:53:11;;;;;;;;;;;0.90;99.90;;;;;;5072459;28;20345;-76
2023/01/19 03:55:37;;;;;;;;;;;0.90;99.90;;;;;;5072089;28;19920;-76
2023/01/19 03:58:03;;;;;;;;;;;1.00;99.90;;;;;;5072807;28;19909;-75
2023/01/19 04:00:29;;;;;;;;;;;0.90;99.90;;;;;;5073150;28;19919;-75
2023/01/19 04:02:54;;;;;;;;;;;0.90;99.90;;;;;;5072353;28;19989;-76
2023/01/19 04:05:21;;;;;;;;;;;0.90;99.90;;;;;;5072608;28;19909;-75
2023/01/19 04:07:47;;;;;;;;;;;0.90;99.90;;;;;;5072142;28;19931;-76
2023/01/19 04:10:14;;;;;;;;;;;0.80;99.90;;;;;;5072532;28;20421;-76
2023/01/19 04:12:40;;;;;;;;;;;0.80;99.90;;;;;;5072252;28;19916;-76
2023/01/19 04:15:06;;;;;;;;;;;0.70;99.90;;;;;;5072121;28;19908;-76
2023/01/19 04:17:31;;;;;;;;;;;0.70;99.90;;;;;;5072104;28;19939;-76
2023/01/19 04:19:57;;;;;;;;;;;0.70;99.90;;;;;;5071263;28;20292;-75
2023/01/19 04:22:23;;;;;;;;;;;0.70;99.90;;;;;;5071852;28;19908;-76
2023/01/19 04:24:48;;;;;;;;;;;0.70;99.90;;;;;;5071639;28;19923;-76
2023/01/19 04:27:15;;;;;;;;;;;0.60;99.90;;;;;;5072001;28;19912;-76
2023/01/19 04:29:41;;;;;;;;;;;0.60;99.90;;;;;;5071140;28;20050;-76
2023/01/19 04:32:06;;;;;;;;;;;0.60;99.90;;;;;;5072174;28;20264;-75
2023/01/19 04:34:32;;;;;;;;;;;0.60;99.90;;;;;;5072061;28;19908;-76
2023/01/19 04:36:57;;;;;;;;;;;0.60;99.90;;;;;;5071366;28;19955;-76
2023/01/19 04:39:23;;;;;;;;;;;0.60;99.90;;;;;;5071461;28;20299;-76
2023/01/19 04:41:50;;;;;;;;;;;0.60;99.90;;;;;;5071170;28;19935;-75
2023/01/19 04:44:16;;;;;;;;;;;0.50;99.90;;;;;;5071324;28;19908;-76
2023/01/19 04:46:42;;;;;;;;;;;0.50;99.90;;;;;;5070991;28;19970;-76
2023/01/19 04:49:07;;;;;;;;;;;0.50;99.90;;;;;;5071392;28;19920;-75
2023/01/19 04:51:33;;;;;;;;;;;0.50;99.90;;;;;;5070907;28;19962;-76
2023/01/19 04:53:58;;;;;;;;;;;0.50;99.90;;;;;;5070835;28;19924;-75
2023/01/19 04:56:24;;;;;;;;;;;0.50;99.90;;;;;;5071804;28;20338;-75
2023/01/19 04:58:50;;;;;;;;;;;0.40;99.90;;;;;;5071093;28;19908;-76
2023/01/19 05:01:15;;;;;;;;;;;0.40;99.90;;;;;;5071498;28;19909;-76
2023/01/19 05:03:41;;;;;;;;;;;0.30;99.90;;;;;;5070753;28;20323;-77
2023/01/19 05:06:06;;;;;;;;;;;0.30;99.90;;;;;;5071353;28;19978;-76
2023/01/19 05:08:32;;;;;;;;;;;0.30;99.90;;;;;;5070820;28;19919;-76
2023/01/19 05:10:58;;;;;;;;;;;0.20;99.90;;;;;;5070705;28;19913;-75
2023/01/19 05:13:23;;;;;;;;;;;0.20;99.90;;;;;;5071171;28;19965;-75
2023/01/19 05:15:49;;;;;;;;;;;0.20;99.90;;;;;;5069155;28;19912;-77
2023/01/19 05:18:15;;;;;;;;;;;0.10;99.90;;;;;;5071191;28;19908;-76
2023/01/19 05:20:40;;;;;;;;;;;0.10;99.90;;;;;;5070760;28;19926;-79
2023/01/19 05:23:06;;;;;;;;;;;0.10;99.90;;;;;;5069255;28;20006;-76
2023/01/19 05:25:31;;;;;;;;;;;0.10;99.90;;;;;;5071432;28;20004;-76
2023/01/19 05:27:57;;;;;;;;;;;0.00;99.90;;;;;;5070576;28;19916;-76
2023/01/19 05:30:22;;;;;;;;;;;0.00;99.90;;;;;;5070986;28;20011;-77
2023/01/19 05:32:48;;;;;;;;;;;0.00;99.90;;;;;;5070436;28;19992;-75
2023/01/19 05:35:15;;;;;;;;;;;-0.10;99.90;;;;;;5071096;28;19915;-75
2023/01/19 05:37:41;;;;;;;;;;;-0.10;99.90;;;;;;5070713;28;19979;-78
2023/01/19 05:40:07;;;;;;;;;;;-0.10;99.90;;;;;;5070276;28;19908;-75
2023/01/19 05:42:32;;;;;;;;;;;-0.20;99.90;;;;;;5069285;28;19909;-75
2023/01/19 05:44:58;;;;;;;;;;;-0.20;99.90;;;;;;5070327;28;19916;-76
2023/01/19 05:47:24;;;;;;;;;;;-0.20;99.90;;;;;;5071061;28;20226;-76
2023/01/19 05:49:49;;;;;;;;;;;-0.30;99.90;;;;;;5070384;28;19924;-76
2023/01/19 05:52:15;;;;;;;;;;;-0.30;99.90;;;;;;5071131;28;19942;-76
2023/01/19 05:54:41;;;;;;;;;;;-0.30;99.90;;;;;;5070446;28;19928;-78
2023/01/19 05:57:07;;;;;;;;;;;-0.40;99.90;;;;;;5070163;28;19908;-75
2023/01/19 05:59:32;;;;;;;;;;;-0.40;99.90;;;;;;5070670;28;19909;-76
2023/01/19 06:01:58;;;;;;;;;;;-0.40;99.90;;;;;;5070365;28;19970;-75
2023/01/19 06:04:24;;;;;;;;;;;-0.40;99.90;;;;;;5073462;28;20277;-75
2023/01/19 06:06:50;;;;;;;;;;;-0.40;99.90;;;;;;5073775;28;19947;-75
2023/01/19 06:09:16;;;;;;;;;;;-0.40;99.90;;;;;;5074228;28;19920;-75
2023/01/19 06:11:42;;;;;;;;;;;-0.40;99.90;;;;;;5074241;28;19923;-77
2023/01/19 06:14:09;;;;;;;;;;;-0.40;99.90;;;;;;5074168;28;19916;-75
2023/01/19 06:16:34;;;;;;;;;;;-0.40;99.90;;;;;;5074363;28;19909;-76
2023/01/19 06:19:00;;;;;;;;;;;-0.40;99.90;;;;;;5073761;28;20226;-76
2023/01/19 06:21:26;;;;;;;;;;;-0.50;99.90;;;;;;5074501;28;19909;-75
2023/01/19 06:23:51;;;;;;;;;;;-0.50;99.90;;;;;;5074024;28;20003;-76
2023/01/19 06:26:17;;;;;;;;;;;-0.50;99.90;;;;;;5074500;28;20328;-75
2023/01/19 06:28:42;;;;;;;;;;;-0.40;99.90;;;;;;5073184;28;19919;-77
2023/01/19 06:31:08;;;;;;;;;;;-0.40;99.90;;;;;;5074400;28;19943;-76
2023/01/19 06:33:34;;;;;;;;;;;-0.40;99.90;;;;;;5074263;28;20298;-75
2023/01/19 06:35:59;;;;;;;;;;;-0.40;99.90;;;;;;5073078;28;19955;-76
2023/01/19 06:38:25;;;;;;;;;;;-0.40;99.90;;;;;;5074065;28;19909;-75
2023/01/19 06:40:52;;;;;;;;;;;-0.40;99.90;;;;;;5074519;28;19926;-75
2023/01/19 06:43:19;;;;;;;;;;;-0.30;99.90;;;;;;5074890;28;20358;-76
2023/01/19 06:45:45;;;;;;;;;;;-0.30;99.90;;;;;;5073648;28;19909;-78
2023/01/19 06:48:10;;;;;;;;;;;-0.30;99.90;;;;;;5073560;28;20011;-76
2023/01/19 06:50:36;;;;;;;;;;;-0.30;99.90;;;;;;5073867;28;19913;-76
2023/01/19 06:53:01;;;;;;;;;;;-0.20;99.90;;;;;;5073331;28;19920;-76
2023/01/19 06:55:27;;;;;;;;;;;-0.20;99.90;;;;;;5074099;28;20381;-76
2023/01/19 06:57:59;;;;;;;;;;;-0.20;99.90;;;;;;5073256;28;20250;-76
2023/01/19 07:00:25;;;;;;;;;;;-0.10;99.90;;;;;;5073641;28;19908;-76
2023/01/19 07:02:50;;;;;;;;;;;-0.10;99.90;;;;;;5073067;28;19909;-77
2023/01/19 07:05:16;;;;;;;;;;;-0.10;99.90;;;;;;5073890;28;19918;-76
2023/01/19 07:07:43;;;;;;;;;;;-0.10;99.90;;;;;;5073298;28;19908;-77
2023/01/19 07:10:14;;;;;;;;;;;-0.10;99.90;;;;;;5072635;28;20403;-76
2023/01/19 07:12:40;;;;;;;;;;;-0.10;99.90;;;;;;5073349;28;19999;-76
2023/01/19 07:15:06;;;;;;;;;;;0.00;99.90;;;;;;5071594;28;20099;-76
2023/01/19 07:17:31;;;;;;;;;;;0.00;99.90;;;;;;5073229;28;19909;-76
2023/01/19 07:19:57;;;;;;;;;;;-0.10;99.90;;;;;;5072608;28;20247;-76
2023/01/19 07:22:22;;;;;;;;;;;0.00;99.90;;;;;;5072828;28;19928;-76
2023/01/19 07:24:48;;;;;;;;;;;0.00;99.90;;;;;;5072457;28;19915;-78
2023/01/19 07:27:15;;;;;;;;;;;0.00;99.90;;;;;;5072770;28;19943;-76
2023/01/19 07:29:41;;;;;;;;;;;0.00;99.90;;;;;;5072937;28;19919;-75
2023/01/19 07:32:07;;;;;;;;;;;0.00;99.90;;;;;;5072383;28;20059;-76
2023/01/19 07:34:33;;;;;;;;;;;0.10;99.90;;;;;;5072774;28;20418;-76
2023/01/19 07:36:58;;;;;;;;;;;0.10;99.90;;;;;;5072162;28;19980;-77
2023/01/19 07:39:24;;;;;;;;;;;0.10;99.90;;;;;;5072763;28;19908;-76
2023/01/19 07:41:50;;;;;;;;;;;0.10;99.90;;;;;;5071919;28;19908;-79
2023/01/19 07:44:15;;;;;;;;;;;0.10;99.90;;;;;;5072294;28;20074;-75
2023/01/19 07:46:42;;;;;;;;;;;0.10;99.90;;;;;;5072132;28;19916;-76
2023/01/19 07:49:07;;;;;;;;;;;0.10;99.90;;;;;;5071799;28;19912;-76
2023/01/19 07:51:33;;;;;;;;;;;0.20;99.90;;;;;;5068830;28;20385;-76
2023/01/19 07:53:58;;;;;;;;;;;0.20;99.90;;;;;;5061757;28;19968;-76
2023/01/19 07:56:26;;;;;;;;;;;0.20;99.90;;;;;;5062105;28;19908;-75
2023/01/19 07:58:52;;;;;;;;;;;0.20;99.90;;;;;;5051597;28;19908;-76
2023/01/19 08:01:17;;;;;;;;;;;0.20;99.90;;;;;;5052185;28;20314;-75
2023/01/19 08:03:43;;;;;;;;;;;0.20;99.90;;;;;;5052223;28;19987;-75
2023/01/19 08:06:18;;;;;;;;;;;0.30;99.90;;;;;;5054274;28;19970;-76
2023/01/19 08:08:44;;;;;;;;;;;0.30;99.90;;;;;;5062089;28;19912;-76
2023/01/19 08:11:09;;;;;;;;;;;0.30;99.90;;;;;;5059252;28;19942;-76
2023/01/19 08:13:35;;;;;;;;;;;0.40;99.90;;;;;;5062203;28;19908;-76
2023/01/19 08:16:00;;;;;;;;;;;0.40;99.90;;;;;;5061313;28;20231;-76
2023/01/19 08:18:26;;;;;;;;;;;0.40;99.90;;;;;;5057656;28;19909;-76
2023/01/19 08:20:51;;;;;;;;;;;0.40;99.90;;;;;;5051512;28;19909;-78
2023/01/19 08:23:17;;;;;;;;;;;0.40;99.90;;;;;;5050051;28;19920;-76
2023/01/19 08:25:44;;;;;;;;;;;0.40;99.90;;;;;;5049698;28;19909;-76
2023/01/19 08:28:10;;;;;;;;;;;0.50;99.90;;;;;;5050931;28;20022;-76
2023/01/19 08:30:37;;;;;;;;;;;0.50;99.90;;;;;;5051459;28;19912;-76
2023/01/19 08:33:02;;;;;;;;;;;0.40;99.90;;;;;;5051388;28;19909;-76
2023/01/19 08:35:32;;;;;;;;;;;0.40;99.90;;;;;;5051990;28;19912;-76
2023/01/19 08:38:00;;;;;;;;;;;0.40;99.90;;;;;;5051347;28;19995;-76
2023/01/19 08:40:29;;;;;;;;;;;0.50;99.90;;;;;;5067190;28;20336;-76
2023/01/19 08:43:00;;;;;;;;;;;0.50;99.90;;;;;;5071051;28;19908;-77
2023/01/19 08:45:27;;;;;;;;;;;0.50;99.90;;;;;;5071665;28;20358;-76
2023/01/19 08:47:54;;;;;;;;;;;0.50;99.90;;;;;;5071243;28;19958;-79
2023/01/19 08:50:21;;;;;;;;;;;0.50;99.90;;;;;;5071568;28;19916;-76
2023/01/19 08:52:47;;;;;;;;;;;0.50;99.90;;;;;;5070179;28;20342;-76
2023/01/19 08:55:12;;;;;;;;;;;0.50;99.90;;;;;;5070260;28;19970;-76
2023/01/19 08:57:38;;;;;;;;;;;0.50;99.90;;;;;;5071392;28;20388;-76
2023/01/19 09:00:06;;;;;;;;;;;0.60;99.90;;;;;;5070256;28;19934;-76
2023/01/19 09:02:32;;;;;;;;;;;0.60;99.90;;;;;;5071105;28;19955;-77
2023/01/19 09:04:57;;;;;;;;;;;0.60;99.90;;;;;;5070412;28;19956;-76
2023/01/19 09:07:23;;;;;;;;;;;0.60;99.90;;;;;;5071057;28;20395;-75
2023/01/19 09:09:49;;;;;;;;;;;0.60;99.90;;;;;;5069751;28;19959;-75
2023/01/19 09:12:15;;;;;;;;;;;0.70;99.90;;;;;;5068983;28;19909;-76
2023/01/19 09:14:40;;;;;;;;;;;0.80;99.90;;;;;;5071080;28;19916;-76
2023/01/19 09:17:06;;;;;;;;;;;0.80;99.90;;;;;;5070703;28;20196;-76
2023/01/19 09:19:32;;;;;;;;;;;0.80;99.90;;;;;;5070358;28;19912;-76
2023/01/19 09:21:58;;;;;;;;;;;0.90;99.90;;;;;;5070699;28;19916;-77
2023/01/19 09:24:24;;;;;;;;;;;0.90;99.90;;;;;;5070691;28;19909;-75
2023/01/19 09:26:49;;;;;;;;;;;1.00;99.90;;;;;;5070691;28;19909;-75
2023/01/19 09:29:15;;;;;;;;;;;1.00;99.90;;;;;;5070316;28;19908;-75
2023/01/19 09:31:42;;;;;;;;;;;1.10;99.90;;;;;;5070781;28;19960;-75
2023/01/19 09:34:09;;;;;;;;;;;1.10;99.90;;;;;;5070437;28;19908;-75
2023/01/19 09:36:36;;;;;;;;;;;1.10;99.90;;;;;;5071240;28;20329;-76
2023/01/19 09:39:02;;;;;;;;;;;1.20;99.90;;;;;;5076866;28;19908;-76
2023/01/19 09:41:28;;;;;;;;;;;1.20;99.90;;;;;;5076567;28;19995;-77
2023/01/19 09:43:56;;;;;;;;;;;1.20;99.90;;;;;;5065771;28;20049;-76
2023/01/19 09:46:42;;;;;;;;;;;1.20;99.90;;;;;;5056677;28;19909;-77
2023/01/19 09:49:12;;;;;;;;;;;1.20;99.90;;;;;;5055904;28;19912;-76
2023/01/19 09:51:39;;;;;;;;;;;1.20;99.90;;;;;;5057232;28;19960;-76
2023/01/19 09:54:08;;;;;;;;;;;1.20;99.90;;;;;;5058659;28;19925;-76
2023/01/19 09:56:34;;;;;;;;;;;1.10;99.90;;;;;;5064526;28;19920;-76
2023/01/19 09:59:00;;;;;;;;;;;1.10;99.90;;;;;;5056978;28;19909;-76
2023/01/19 10:01:29;;;;;;;;;;;1.20;99.90;;;;;;5057167;28;19992;-76
2023/01/19 10:04:12;;;;;;;;;;;1.20;99.90;;;;;;5057447;28;19962;-75
2023/01/19 10:06:38;;;;;;;;;;;1.30;99.90;;;;;;5055629;28;19916;-75
2023/01/19 10:09:10;;;;;;;;;;;1.30;99.90;;;;;;5056846;28;19916;-76
2023/01/19 10:11:41;;;;;;;;;;;1.30;99.90;;;;;;5057418;28;19991;-76
2023/01/19 10:14:12;;;;;;;;;;;1.40;99.90;;;;;;5056604;28;20393;-76
2023/01/19 10:16:38;;;;;;;;;;;1.50;99.90;;;;;;5056935;28;20373;-76
2023/01/19 10:19:29;;;;;;;;;;;1.50;99.90;;;;;;5056361;28;19908;-76
2023/01/19 10:21:57;;;;;;;;;;;1.60;99.90;;;;;;5055702;28;19916;-76
2023/01/19 10:24:34;;;;;;;;;;;1.70;99.90;;;;;;5056651;28;20047;-75
2023/01/19 10:27:00;;;;;;;;;;;1.70;99.90;;;;;;5056133;28;19909;-78
2023/01/19 10:29:29;;;;;;;;;;;1.70;99.90;;;;;;5056873;28;19920;-75
2023/01/19 10:32:02;;;;;;;;;;;1.80;99.90;;;;;;5056935;28;19923;-75
2023/01/19 10:34:28;;;;;;;;;;;1.80;99.90;;;;;;5057005;28;19908;-75
2023/01/19 10:36:57;;;;;;;;;;;1.80;99.90;;;;;;5057021;28;19958;-76
2023/01/19 10:39:23;;;;;;;;;;;1.90;99.90;;;;;;5055410;28;20285;-75
2023/01/19 10:41:50;;;;;;;;;;;1.90;99.90;;;;;;5056936;28;19913;-75
2023/01/19 10:44:32;;;;;;;;;;;2.00;99.90;;;;;;5071052;28;19946;-75
2023/01/19 10:46:59;;;;;;;;;;;2.00;99.90;;;;;;5077082;28;19991;-74
2023/01/19 10:49:30;;;;;;;;;;;2.10;99.90;;;;;;5074128;28;20015;-77
2023/01/19 10:51:56;;;;;;;;;;;2.20;99.90;;;;;;5074178;28;19977;-76
2023/01/19 10:54:23;;;;;;;;;;;2.20;99.90;;;;;;5073195;28;19924;-76
2023/01/19 10:56:56;;;;;;;;;;;2.30;99.90;;;;;;5073940;28;19908;-78
2023/01/19 10:59:45;;;;;;;;;;;2.30;99.90;;;;;;5073093;28;19905;-76
2023/01/19 11:02:11;;;;;;;;;;;2.40;99.90;;;;;;5074322;28;20411;-76
2023/01/19 11:04:37;;;;;;;;;;;2.50;99.90;;;;;;5073013;28;19995;-76
2023/01/19 11:07:12;;;;;;;;;;;2.60;99.90;;;;;;5072527;28;19970;-78
2023/01/19 11:09:37;;;;;;;;;;;2.60;99.90;;;;;;5072716;28;19912;-77
2023/01/19 11:12:03;;;;;;;;;;;2.70;99.90;;;;;;5072173;28;20007;-78
2023/01/19 11:14:29;;;;;;;;;;;2.80;99.90;;;;;;5072537;28;19912;-76
2023/01/19 11:16:56;;;;;;;;;;;2.80;99.90;;;;;;5072949;28;19909;-76
2023/01/19 11:19:26;;;;;;;;;;;2.80;99.90;;;;;;5072146;28;20002;-76
2023/01/19 11:21:52;;;;;;;;;;;2.80;99.90;;;;;;5072264;28;19909;-75
2023/01/19 11:24:17;;;;;;;;;;;2.80;99.90;;;;;;5072125;28;19916;-77
2023/01/19 11:26:46;;;;;;;;;;;2.80;99.90;;;;;;5072674;28;19908;-77
2023/01/19 11:29:25;;;;;;;;;;;2.70;99.90;;;;;;5070894;28;20011;-75
2023/01/19 11:31:51;;;;;;;;;;;2.70;99.90;;;;;;5071983;28;19913;-76
2023/01/19 11:34:26;;;;;;;;;;;2.70;99.90;;;;;;5071817;28;19978;-77
2023/01/19 11:36:56;;;;;;;;;;;2.70;99.90;;;;;;5072584;28;20342;-76
2023/01/19 11:39:23;;;;;;;;;;;2.70;99.90;;;;;;5071945;28;20019;-77
2023/01/19 11:41:50;;;;;;;;;;;2.70;99.90;;;;;;5072138;28;19952;-76
2023/01/19 11:44:38;;;;;;;;;;;2.80;99.90;;;;;;5071285;28;20341;-79
2023/01/19 11:47:05;;;;;;;;;;;2.80;99.90;;;;;;5071938;28;19915;-79
2023/01/19 11:49:49;;;;;;;;;;;2.80;99.90;;;;;;5072110;28;20249;-76
2023/01/19 11:52:31;;;;;;;;;;;2.90;99.90;;;;;;5071357;28;19912;-76
2023/01/19 11:55:02;;;;;;;;;;;2.90;99.90;;;;;;5071764;28;19967;-77
2023/01/19 11:57:27;;;;;;;;;;;2.90;99.90;;;;;;5071631;28;19916;-75
2023/01/19 11:59:53;;;;;;;;;;;2.90;99.90;;;;;;5071433;28;20258;-76
2023/01/19 12:02:27;;;;;;;;;;;3.00;99.90;;;;;;5071293;28;19913;-76
2023/01/19 12:04:55;;;;;;;;;;;3.00;99.90;;;;;;5072145;28;20014;-75
2023/01/19 12:07:24;;;;;;;;;;;3.00;99.90;;;;;;5071546;28;19920;-77
2023/01/19 12:09:52;;;;;;;;;;;3.00;99.90;;;;;;5072865;28;19912;-77
2023/01/19 12:12:18;;;;;;;;;;;3.10;99.90;;;;;;5072162;28;20389;-77
2023/01/19 12:14:51;;;;;;;;;;;3.10;99.90;;;;;;5072505;28;19940;-77
2023/01/19 12:17:25;;;;;;;;;;;3.20;99.90;;;;;;5072588;28;19916;-77
2023/01/19 12:19:53;;;;;;;;;;;3.20;99.90;;;;;;5073397;28;20374;-77
2023/01/19 12:22:19;;;;;;;;;;;3.20;99.90;;;;;;5072220;28;19913;-76
2023/01/19 12:24:47;;;;;;;;;;;3.30;99.90;;;;;;5072698;28;19908;-76
2023/01/19 12:27:16;;;;;;;;;;;3.30;99.90;;;;;;5072561;28;19915;-77
2023/01/19 12:29:42;;;;;;;;;;;3.30;99.90;;;;;;5072927;28;20262;-76
2023/01/19 12:32:17;;;;;;;;;;;3.30;99.90;;;;;;5072695;28;19920;-78
2023/01/19 12:34:45;;;;;;;;;;;3.40;99.90;;;;;;5072502;28;20369;-77
2023/01/19 12:37:29;;;;;;;;;;;3.40;99.90;;;;;;5071863;28;20241;-76
2023/01/19 12:39:59;;;;;;;;;;;3.40;99.90;;;;;;5072721;28;19908;-76
2023/01/19 12:42:25;;;;;;;;;;;3.50;99.90;;;;;;5071500;28;19913;-75
2023/01/19 12:45:03;;;;;;;;;;;3.50;99.90;;;;;;5072591;28;19916;-76
2023/01/19 12:47:28;;;;;;;;;;;3.50;99.90;;;;;;5070522;28;19923;-76
2023/01/19 12:49:58;;;;;;;;;;;3.50;99.90;;;;;;5071954;28;20354;-76
2023/01/19 12:52:29;;;;;;;;;;;3.50;99.90;;;;;;5071794;28;20337;-76
2023/01/19 12:54:55;;;;;;;;;;;3.50;99.90;;;;;;5071921;28;19921;-76
2023/01/19 12:57:26;;;;;;;;;;;3.50;99.90;;;;;;5071627;28;19931;-76
2023/01/19 12:59:56;;;;;;;;;;;3.50;99.90;;;;;;5071853;28;19908;-76
2023/01/19 13:02:29;;;;;;;;;;;3.50;99.90;;;;;;5070819;28;19943;-76
2023/01/19 13:05:13;;;;;;;;;;;3.50;99.90;;;;;;5071172;28;19955;-75
2023/01/19 13:07:57;;;;;;;;;;;3.60;99.90;;;;;;5071780;28;19912;-76
2023/01/19 13:10:41;;;;;;;;;;;3.60;99.90;;;;;;5071513;28;20012;-76
2023/01/19 13:13:15;;;;;;;;;;;3.60;99.90;;;;;;5071167;28;19909;-76
2023/01/19 13:15:41;;;;;;;;;;;3.60;99.90;;;;;;5071014;28;20423;-76
2023/01/19 13:18:07;;;;;;;;;;;3.60;99.90;;;;;;5071762;28;20262;-76
2023/01/19 13:20:43;;;;;;;;;;;3.70;99.90;;;;;;5071119;28;19908;-77
2023/01/19 13:23:15;;;;;;;;;;;3.80;99.90;;;;;;5071908;28;19913;-79
2023/01/19 13:25:41;;;;;;;;;;;3.80;99.90;;;;;;5071970;28;19908;-77
2023/01/19 13:28:08;;;;;;;;;;;3.80;99.90;;;;;;5072105;28;19977;-76
2023/01/19 13:30:35;;;;;;;;;;;3.90;99.90;;;;;;5071407;28;19916;-77
2023/01/19 13:33:05;;;;;;;;;;;3.90;99.90;;;;;;5060731;28;19965;-77
2023/01/19 13:35:31;;;;;;;;;;;3.90;99.90;;;;;;5061817;28;19905;-77
2023/01/19 13:37:57;;;;;;;;;;;3.80;99.90;;;;;;5062176;28;19909;-77
2023/01/19 13:40:24;;;;;;;;;;;4.00;99.90;;;;;;5061196;28;19912;-77
2023/01/19 13:42:51;;;;;;;;;;;4.00;99.90;;;;;;5060433;28;19909;-78
2023/01/19 13:45:36;;;;;;;;;;;4.00;99.90;;;;;;5062711;28;19909;-77
2023/01/19 13:48:04;;;;;;;;;;;4.00;99.90;;;;;;5071508;28;20276;-77
2023/01/19 13:50:31;;;;;;;;;;;4.00;99.90;;;;;;5071440;28;19921;-76
2023/01/19 13:52:57;;;;;;;;;;;4.00;99.90;;;;;;5064410;28;20004;-77
2023/01/19 13:55:23;;;;;;;;;;;4.00;99.90;;;;;;5062593;28;19967;-77
2023/01/19 13:57:50;;;;;;;;;;;4.00;99.90;;;;;;5060321;28;19916;-76
2023/01/19 14:00:17;;;;;;;;;;;4.10;99.90;;;;;;5071207;28;19979;-76
2023/01/19 14:02:57;;;;;;;;;;;4.10;99.90;;;;;;5071825;28;20105;-76
2023/01/19 14:05:43;;;;;;;;;;;4.10;99.90;;;;;;5070909;28;19908;-76
2023/01/19 14:08:11;;;;;;;;;;;4.00;99.90;;;;;;5070798;28;19999;-76
2023/01/19 14:10:41;;;;;;;;;;;4.10;99.90;;;;;;5071172;28;19969;-79
2023/01/19 14:13:16;;;;;;;;;;;4.10;99.90;;;;;;5061550;28;19908;-77
2023/01/19 14:15:42;;;;;;;;;;;4.10;99.90;;;;;;5062429;28;19916;-76
2023/01/19 14:18:11;;;;;;;;;;;4.10;99.90;;;;;;5061194;28;19909;-75
2023/01/19 14:20:37;;;;;;;;;;;4.10;99.90;;;;;;5062142;28;19908;-76
2023/01/19 14:23:03;;;;;;;;;;;4.10;99.90;;;;;;5060365;28;19987;-76
2023/01/19 14:25:33;;;;;;;;;;;4.10;99.90;;;;;;5055923;28;19913;-77
2023/01/19 14:28:17;;;;;;;;;;;4.00;99.90;;;;;;5055038;28;19909;-76
2023/01/19 14:30:56;;;;;;;;;;;4.10;99.90;;;;;;5054908;28;19916;-76
2023/01/19 14:33:34;;;;;;;;;;;4.10;99.90;;;;;;5064409;28;19913;-77
2023/01/19 14:36:29;;;;;;;;;;;4.10;99.90;;;;;;5057573;28;20034;-76
2023/01/19 14:38:56;;;;;;;;;;;4.00;99.90;;;;;;5050837;28;19940;-76
2023/01/19 14:41:25;;;;;;;;;;;3.90;99.90;;;;;;5058137;28;19908;-77
2023/01/19 14:43:51;;;;;;;;;;;3.90;99.90;;;;;;5065093;28;20002;-77